Saint Ansgar, IA

10:41 AM CST on January 18, 2017 (GMT -0600)
| | Change Station
Active Advisory: Special Statement

Elev -9999 ft 0.00 °N, 0.00 °E | Updated 8 minutes ago

Fog
Fog
°F
Feels Like °F
N
Wind Variable Wind from North
Gusts mph

Today
High -- | Low -- °F
--% Chance of Precip.
Yesterday
High -- | Low -- °F
Precip. -- in
Pressure 29.97 in
Visibility 0.2 miles
Clouds Overcast 100 ft
Dew Point Not available.
Humidity Not available.
Rainfall --
Snow Depth Not available.
7:39 AM 5:05 PM
Waning Gibbous, 62% visible
METAR KAUM 181636Z AUTO 19011KT 1/4SM FZFG OVC001 M02/M02 A2997 RMK AO2
Pressure 29.97 in
Visibility 0.2 miles
Clouds Overcast 100 ft
Dew Point Not available.
Humidity Not available.
Rainfall --
Snow Depth Not available.
7:39 AM 5:05 PM
Waning Gibbous, 62% visible
METAR KAUM 181636Z AUTO 19011KT 1/4SM FZFG OVC001 M02/M02 A2997 RMK AO2

Get Your Daily Forecast Email!

Thanks for signing up!

Be on the lookout for a verification email in your inbox.

You'll start receiving the daily forecast at 8 AM.

×

10-Day Weather Forecast

Almanac

Astronomy

Jan. 18, 2017 Rise Set
Actual Time
Civil Twilight
Nautical Twilight
Astronomical Twilight
Moon
Length of Visible Light
Length of Day
Tomorrow will be .
, % of the Moon is Illuminated

Today's Extremes

State Highs State Lows

Community

WunderPhotos

Upload Photos

1,962,540 photos uploaded!

WunderBlog® & News

Nearby

Air Quality

  Air Quality AQ Index Pollutant
Not available.

Snow Depth

Station Depth Elevation

Earthquake Activity

City Distance Mag. Time & Date
Minimum magnitude displayed is 2.5.

Coastal Water Temperatures

Place Temperature

Stations

Nearby Weather Stations

Station Location Temp. Windchill Dew Point Humidity Wind Precip. Elev Updated Type
                   

Watches & Warnings

Special Statement
Issued: 8:49 AM CST Jan. 18, 2017 – National Weather Service

... Areas of dense fog this morning...

Through 11 am... areas of dense fog will be seen across parts of
northeast Iowa and southeast Minnesota. This fog will reduce
visibilities to less than a quarter mile. In addition with
temperatures below freezing... any moisture deposited from this
fog has the potential to produce a light glaze.

For those driving this morning... allow extra time to reach your
destination and extra distance between you and the vehicle in
front of you.


Boyne

849 am CST Wed Jan 18 2017

... Areas of dense fog this morning...

Through 11 am... areas of dense fog will be seen across parts of
northeast Iowa and southeast Minnesota. This fog will reduce
visibilities to less than a quarter mile. In addition with
temperatures below freezing... any moisture deposited from this
fog has the potential to produce a light glaze.

For those driving this morning... allow extra time to reach your
destination and extra distance between you and the vehicle in
front of you.


Boyne